createdAt,value
2018-07-22T00:03:19.746Z,79.699997
2018-07-22T00:08:21.932Z,79.800003
2018-07-22T00:13:24.244Z,79.599998
2018-07-22T00:18:26.604Z,79.699997
2018-07-22T00:23:28.942Z,80
2018-07-22T00:28:31.193Z,80.400002
2018-07-22T00:33:33.402Z,80.900002
2018-07-22T00:38:35.824Z,81.300003
2018-07-22T00:43:38.107Z,81.699997
2018-07-22T00:48:40.333Z,82.199997
2018-07-22T00:53:42.666Z,82.699997
2018-07-22T00:58:44.981Z,83.199997
2018-07-22T01:03:47.255Z,83.5
2018-07-22T01:08:49.427Z,83.800003
2018-07-22T01:13:51.817Z,84.300003
2018-07-22T01:18:54.050Z,84.300003
2018-07-22T01:23:56.450Z,84.800003
2018-07-22T01:28:58.663Z,84.800003
2018-07-22T01:34:01.010Z,84.900002
2018-07-22T01:39:03.232Z,85
2018-07-22T01:44:05.675Z,85.400002
2018-07-22T01:49:07.913Z,85.800003
2018-07-22T01:54:10.194Z,85.800003
2018-07-22T01:59:12.417Z,86
2018-07-22T02:04:14.780Z,85.599998
2018-07-22T02:09:17.143Z,85.599998
2018-07-22T02:14:19.395Z,86
2018-07-22T02:19:21.706Z,86.400002
2018-07-22T02:24:23.885Z,86.300003
2018-07-22T02:29:26.354Z,86.5
2018-07-22T02:34:28.545Z,86.599998
2018-07-22T02:39:30.875Z,86.800003
2018-07-22T02:44:33.071Z,87
2018-07-22T02:49:35.415Z,87.199997
2018-07-22T02:54:37.661Z,87.5
2018-07-22T02:59:39.973Z,87.699997
2018-07-22T03:04:42.288Z,87.400002
2018-07-22T03:09:44.539Z,87.5
2018-07-22T03:14:46.906Z,88
2018-07-22T03:19:49.167Z,88.599998
2018-07-22T03:24:51.460Z,88.800003
2018-07-22T03:29:53.674Z,89
2018-07-22T03:34:56.005Z,91
2018-07-22T03:39:58.384Z,89.099998
2018-07-22T03:45:00.688Z,89
2018-07-22T03:50:02.881Z,89.599998
2018-07-22T03:55:05.244Z,91.300003
2018-07-22T04:00:07.615Z,92.300003
2018-07-22T04:05:09.827Z,90.400002
2018-07-22T04:10:12.044Z,87.800003
2018-07-22T04:15:14.365Z,88
2018-07-22T04:20:16.669Z,88.800003
2018-07-22T04:25:19.006Z,91.400002
2018-07-22T04:30:21.315Z,92.800003
2018-07-22T04:35:23.540Z,91.800003
2018-07-22T04:40:25.880Z,91.099998
2018-07-22T04:45:28.128Z,90.900002
2018-07-22T04:50:30.450Z,91.300003
2018-07-22T04:55:32.789Z,91.099998
2018-07-22T05:00:35.119Z,91.099998
2018-07-22T05:05:37.325Z,91.300003
2018-07-22T05:10:39.554Z,90.099998
2018-07-22T05:15:41.959Z,89.099998
2018-07-22T05:20:44.212Z,88.800003
2018-07-22T05:25:46.529Z,87.900002
2018-07-22T05:30:48.795Z,87.099998
2018-07-22T05:35:51.045Z,86.400002
2018-07-22T05:40:53.446Z,86.099998
2018-07-22T05:45:55.689Z,85.300003
2018-07-22T05:50:58.004Z,84.599998
2018-07-22T05:56:00.236Z,84.099998
2018-07-22T06:01:02.498Z,82.800003
2018-07-22T06:06:04.881Z,82.599998
2018-07-22T06:11:07.166Z,80.900002
2018-07-22T06:16:09.526Z,79.800003
2018-07-22T06:21:11.758Z,79.300003
2018-07-22T06:26:14.055Z,76.400002
2018-07-22T06:31:16.457Z,75.5
2018-07-22T06:36:18.777Z,74.800003
2018-07-22T06:41:21.016Z,71.900002
2018-07-22T06:46:23.208Z,70.5
2018-07-22T06:51:25.509Z,71.5
2018-07-22T06:56:27.854Z,69.199997
2018-07-22T07:01:30.118Z,68
2018-07-22T07:06:32.499Z,67
2018-07-22T07:11:34.640Z,64.400002
2018-07-22T07:16:37.082Z,60.599998
2018-07-22T07:21:39.351Z,57.400002
2018-07-22T07:26:41.622Z,54.599998
2018-07-22T07:31:43.871Z,53.900002
2018-07-22T07:36:46.126Z,49.099998
2018-07-22T07:41:48.583Z,52.700001
2018-07-22T07:46:50.836Z,45.200001
2018-07-22T07:51:53.112Z,45.900002
2018-07-22T07:56:55.285Z,48.599998
2018-07-22T08:01:57.614Z,43.700001
2018-07-22T08:06:59.908Z,42.5
2018-07-22T08:12:02.276Z,43.200001
2018-07-22T08:17:04.568Z,42.099998
2018-07-22T08:22:06.888Z,41.599998
2018-07-22T08:27:09.167Z,39
2018-07-22T08:32:11.506Z,38.400002
2018-07-22T08:37:13.934Z,36.799999
2018-07-22T08:42:15.985Z,36.900002
2018-07-22T08:47:18.264Z,35.299999
2018-07-22T08:52:20.602Z,35.799999
2018-07-22T08:57:22.890Z,35.700001
2018-07-22T09:02:25.087Z,34.900002
2018-07-22T09:07:27.480Z,35
2018-07-22T09:12:29.654Z,33.900002
2018-07-22T09:17:32.077Z,33.400002
2018-07-22T09:22:34.321Z,30.1
2018-07-22T09:27:36.631Z,33.400002
2018-07-22T09:32:38.972Z,30.700001
2018-07-22T09:37:41.310Z,31.299999
2018-07-22T09:42:43.599Z,32.599998
2018-07-22T09:47:45.777Z,28
2018-07-22T09:52:48.036Z,28.700001
2018-07-22T09:57:50.448Z,29.4
2018-07-22T10:02:52.642Z,29.5
2018-07-22T10:07:55.034Z,27.9
2018-07-22T10:12:57.230Z,29
2018-07-22T10:17:59.546Z,29.700001
2018-07-22T10:23:01.916Z,27.200001
2018-07-22T10:28:04.266Z,27.1
2018-07-22T10:33:06.435Z,26.799999
2018-07-22T10:38:08.746Z,28
2018-07-22T10:43:11.091Z,28.299999
2018-07-22T10:48:13.296Z,23.9
2018-07-22T10:53:15.620Z,25.4
2018-07-22T10:58:17.934Z,24.799999
2018-07-22T11:03:20.269Z,27
2018-07-22T11:08:22.590Z,26.700001
2018-07-22T11:13:24.815Z,24.6
2018-07-22T11:18:27.094Z,24.799999
2018-07-22T11:23:29.359Z,24.700001
2018-07-22T11:28:31.715Z,25.299999
2018-07-22T11:33:34.065Z,26.299999
2018-07-22T11:38:36.296Z,24.1
2018-07-22T11:43:38.642Z,24.5
2018-07-22T11:48:40.886Z,24
2018-07-22T11:53:43.190Z,24.200001
2018-07-22T11:58:45.372Z,25.200001
2018-07-22T12:03:47.763Z,26.700001
2018-07-22T12:08:50.032Z,25.799999
2018-07-22T12:13:52.283Z,24.9
2018-07-22T12:18:54.721Z,26.1
2018-07-22T12:23:56.898Z,29.299999
2018-07-22T12:28:59.265Z,27.9
2018-07-22T12:34:01.484Z,30.799999
2018-07-22T12:39:03.898Z,27.9
2018-07-22T12:44:06.105Z,24.799999
2018-07-22T12:49:08.425Z,27.6
2018-07-22T12:54:10.674Z,26.1
2018-07-22T12:59:13.255Z,28.700001
2018-07-22T13:04:15.270Z,25
2018-07-22T13:09:17.584Z,24.299999
2018-07-22T13:14:19.886Z,24.799999
2018-07-22T13:19:22.278Z,26.799999
2018-07-22T13:24:24.546Z,33.099998
2018-07-22T13:29:26.794Z,31.200001
2018-07-22T13:34:29.031Z,29.1
2018-07-22T13:39:31.379Z,31.200001
2018-07-22T13:44:33.623Z,29.200001
2018-07-22T13:49:35.975Z,28.5
2018-07-22T13:54:38.193Z,32.200001
2018-07-22T13:59:40.681Z,35.099998
2018-07-22T14:04:42.814Z,32.900002
2018-07-22T14:09:45.156Z,33.200001
2018-07-22T14:14:47.346Z,32.900002
2018-07-22T14:19:49.814Z,31.1
2018-07-22T14:24:52.103Z,32
2018-07-22T14:29:54.344Z,34
2018-07-22T14:34:56.575Z,33.200001
2018-07-22T14:39:58.828Z,32.900002
2018-07-22T14:45:01.143Z,35.299999
2018-07-22T14:50:03.572Z,31.5
2018-07-22T14:55:05.833Z,28.6
2018-07-22T15:00:08.050Z,30.299999
2018-07-22T15:05:10.454Z,27.5
2018-07-22T15:10:12.665Z,31.1
2018-07-22T15:15:14.886Z,31.4
2018-07-22T15:20:17.135Z,30.799999
2018-07-22T15:25:19.595Z,30.700001
2018-07-22T15:30:21.813Z,31.4
2018-07-22T15:35:24.192Z,32.599998
2018-07-22T15:40:26.446Z,33.200001
2018-07-22T15:45:28.792Z,34.299999
2018-07-22T15:50:32.595Z,33.5
2018-07-22T15:55:33.492Z,33.599998
2018-07-22T16:00:35.571Z,36.400002
2018-07-22T16:05:38.084Z,34.700001
2018-07-22T16:10:40.141Z,36.700001
2018-07-22T16:15:42.477Z,36.5
2018-07-22T16:20:44.770Z,36.5
2018-07-22T16:25:47.076Z,34.799999
2018-07-22T16:30:49.362Z,37.700001
2018-07-22T16:35:51.685Z,35
2018-07-22T16:40:54.087Z,37.299999
2018-07-22T16:50:58.449Z,35.5
2018-07-22T16:56:00.908Z,36.900002
2018-07-22T17:01:03.053Z,38.400002
2018-07-22T17:06:05.497Z,39.700001
2018-07-22T17:11:07.721Z,38.200001
2018-07-22T17:16:09.991Z,40.099998
2018-07-22T17:21:12.431Z,44.200001
2018-07-22T17:26:14.680Z,41.5
2018-07-22T17:31:16.946Z,46.5
2018-07-22T17:36:19.174Z,47.400002
2018-07-22T17:41:21.473Z,48.400002
2018-07-22T17:46:23.806Z,47.599998
2018-07-22T17:51:26.122Z,47.400002
2018-07-22T17:56:28.720Z,48.099998
2018-07-22T18:01:30.731Z,44.799999
2018-07-22T18:06:32.868Z,46.799999
2018-07-22T18:11:35.400Z,48
2018-07-22T18:16:37.620Z,48.799999
2018-07-22T18:21:39.776Z,49.700001
2018-07-22T18:26:42.143Z,48.099998
2018-07-22T18:31:44.446Z,50.099998
2018-07-22T18:36:46.814Z,49.400002
2018-07-22T18:41:48.994Z,50.200001
2018-07-22T18:46:51.323Z,50.299999
2018-07-22T18:51:53.727Z,52.5
2018-07-22T18:56:56.093Z,53.200001
2018-07-22T19:01:58.168Z,52.5
2018-07-22T19:07:00.564Z,52.900002
2018-07-22T19:12:02.871Z,53.900002
2018-07-22T19:17:05.129Z,53.700001
2018-07-22T19:22:07.396Z,56.200001
2018-07-22T19:27:09.629Z,56.599998
2018-07-22T19:32:12.037Z,56.799999
2018-07-22T19:37:14.268Z,57.299999
2018-07-22T19:42:16.512Z,58.299999
2018-07-22T19:47:18.922Z,59.200001
2018-07-22T19:52:21.179Z,60.400002
2018-07-22T19:57:23.512Z,60.5
2018-07-22T20:02:25.734Z,61.599998
2018-07-22T20:07:28.070Z,61.900002
2018-07-22T20:12:30.332Z,63.099998
2018-07-22T20:17:32.631Z,64.099998
2018-07-22T20:22:34.981Z,65.300003
2018-07-22T20:27:37.295Z,65.800003
2018-07-22T20:32:39.492Z,65.5
2018-07-22T20:37:41.818Z,66.800003
2018-07-22T20:42:44.046Z,66.900002
2018-07-22T20:47:46.439Z,67.800003
2018-07-22T20:52:48.791Z,68.599998
2018-07-22T20:57:50.956Z,69.199997
2018-07-22T21:02:53.277Z,70.099998
2018-07-22T21:07:55.646Z,70.099998
2018-07-22T21:12:57.863Z,70.199997
2018-07-22T21:18:00.169Z,70.599998
2018-07-22T21:23:02.477Z,70.800003
2018-07-22T21:28:04.808Z,71.699997
2018-07-22T21:33:07.054Z,72.400002
2018-07-22T21:38:09.381Z,73.5
2018-07-22T21:43:11.590Z,74.099998
2018-07-22T21:48:13.837Z,74.800003
2018-07-22T21:53:16.157Z,75.199997
2018-07-22T21:58:18.554Z,75.599998
2018-07-22T22:03:20.845Z,75.5
2018-07-22T22:08:23.133Z,75.800003
2018-07-22T22:13:25.445Z,75.800003
2018-07-22T22:18:27.763Z,75.400002
2018-07-22T22:23:30.002Z,75.099998
2018-07-22T22:28:32.422Z,75.400002
2018-07-22T22:33:34.541Z,76.300003
2018-07-22T22:38:36.829Z,76.699997
2018-07-22T22:43:39.175Z,77.199997
2018-07-22T22:48:41.422Z,77.400002
2018-07-22T22:53:43.907Z,78
2018-07-22T22:58:46.047Z,78.5
2018-07-22T23:03:48.418Z,78.900002
2018-07-22T23:08:50.720Z,79.099998
2018-07-22T23:13:52.874Z,79.699997
2018-07-22T23:18:55.186Z,80.300003
2018-07-22T23:23:57.495Z,79.699997
2018-07-22T23:28:59.881Z,80
2018-07-22T23:34:02.162Z,80.599998
2018-07-22T23:39:04.457Z,80.599998
2018-07-22T23:44:06.691Z,82.199997
2018-07-22T23:49:08.961Z,82.099998
2018-07-22T23:54:11.188Z,82
2018-07-22T23:59:13.634Z,81.699997
